createdAt,value
2023-01-29T00:00:23.805Z,17.13
2023-01-29T00:02:52.873Z,20.13
2023-01-29T00:05:28.031Z,19.20
2023-01-29T00:07:58.832Z,17.67
2023-01-29T00:10:28.041Z,14.80
2023-01-29T00:12:57.168Z,16.03
2023-01-29T00:15:26.239Z,18.03
2023-01-29T00:17:55.289Z,15.60
2023-01-29T00:20:24.321Z,15.37
2023-01-29T00:22:53.779Z,18.13
2023-01-29T00:25:24.241Z,14.90
2023-01-29T00:27:53.378Z,11.00
2023-01-29T00:30:22.703Z,14.93
2023-01-29T00:32:53.963Z,14.43
2023-01-29T00:35:23.012Z,14.20
2023-01-29T00:37:52.017Z,15.90
2023-01-29T00:40:21.070Z,12.97
2023-01-29T00:43:09.504Z,19.47
2023-01-29T00:45:38.604Z,16.73
2023-01-29T00:48:08.602Z,10.90
2023-01-29T00:50:37.684Z,12.20
2023-01-29T00:53:08.096Z,13.03
2023-01-29T00:55:37.118Z,13.97
2023-01-29T00:58:08.175Z,15.10
2023-01-29T01:00:37.221Z,12.67
2023-01-29T01:03:07.961Z,10.70
2023-01-29T01:05:38.973Z,13.20
2023-01-29T01:08:28.589Z,13.27
2023-01-29T01:11:01.334Z,14.30
2023-01-29T01:13:33.485Z,16.20
2023-01-29T01:16:02.606Z,13.83
2023-01-29T01:18:32.311Z,13.93
2023-01-29T01:21:01.393Z,11.03
2023-01-29T01:23:30.473Z,11.27
2023-01-29T01:25:59.734Z,13.37
2023-01-29T01:28:29.687Z,15.90
2023-01-29T01:31:08.850Z,9.17
2023-01-29T01:33:38.440Z,11.20
2023-01-29T01:36:09.741Z,13.53
2023-01-29T01:38:44.282Z,11.53
2023-01-29T01:41:14.950Z,10.97
2023-01-29T01:43:55.553Z,21.23
2023-01-29T01:46:26.602Z,12.27
2023-01-29T01:49:00.101Z,15.07
2023-01-29T01:51:33.721Z,12.53
2023-01-29T01:54:07.177Z,11.10
2023-01-29T01:56:41.517Z,13.27
2023-01-29T01:59:14.142Z,15.87
2023-01-29T02:01:49.933Z,11.23
2023-01-29T02:04:40.304Z,14.47
2023-01-29T02:07:29.330Z,13.30
2023-01-29T02:10:06.650Z,11.20
2023-01-29T02:12:37.466Z,13.43
2023-01-29T02:15:07.728Z,11.93
2023-01-29T02:17:38.421Z,15.33
2023-01-29T02:20:16.619Z,16.97
2023-01-29T02:23:15.269Z,14.20
2023-01-29T02:26:21.356Z,9.97
2023-01-29T02:28:57.109Z,14.43
2023-01-29T02:31:33.849Z,12.70
2023-01-29T02:34:13.823Z,12.50
2023-01-29T02:36:48.957Z,12.77
2023-01-29T02:39:24.480Z,11.73
2023-01-29T02:42:01.427Z,7.37
2023-01-29T02:44:39.266Z,13.23
2023-01-29T02:47:15.051Z,11.53
2023-01-29T02:49:49.943Z,11.80
2023-01-29T02:52:24.318Z,8.40
2023-01-29T02:54:57.186Z,13.67
2023-01-29T02:57:30.000Z,10.07
2023-01-29T03:00:06.975Z,11.27
2023-01-29T03:02:42.747Z,10.80
2023-01-29T03:05:18.725Z,13.13
2023-01-29T03:07:54.588Z,10.93
2023-01-29T03:10:36.186Z,12.53
2023-01-29T03:13:11.676Z,11.77
2023-01-29T03:15:48.313Z,10.97
2023-01-29T03:18:34.261Z,15.67
2023-01-29T03:21:29.789Z,9.50
2023-01-29T03:24:18.494Z,11.67
2023-01-29T03:27:07.004Z,12.33
2023-01-29T03:30:00.880Z,10.97
2023-01-29T03:32:47.545Z,11.70
2023-01-29T03:35:33.384Z,8.93
2023-01-29T03:38:03.922Z,9.87
2023-01-29T03:40:40.482Z,6.07
2023-01-29T03:43:16.003Z,12.43
2023-01-29T03:45:57.906Z,9.20
2023-01-29T03:48:35.469Z,12.80
2023-01-29T03:51:17.970Z,7.70
2023-01-29T03:53:54.432Z,16.63
2023-01-29T03:56:35.264Z,7.57
2023-01-29T03:59:13.702Z,9.53
2023-01-29T04:02:06.673Z,11.10
2023-01-29T04:04:39.245Z,10.73
2023-01-29T04:07:14.672Z,11.67
2023-01-29T04:09:55.427Z,9.93
2023-01-29T04:12:30.587Z,8.17
2023-01-29T04:15:02.690Z,9.23
2023-01-29T04:17:38.114Z,8.77
2023-01-29T04:20:22.285Z,9.73
2023-01-29T04:22:53.881Z,9.07
2023-01-29T04:25:28.938Z,9.73
2023-01-29T04:28:06.045Z,9.37
2023-01-29T04:30:47.750Z,10.50
2023-01-29T04:33:29.157Z,14.80
2023-01-29T04:36:12.456Z,10.10
2023-01-29T04:38:55.433Z,10.17
2023-01-29T04:41:31.778Z,11.07
2023-01-29T04:44:04.880Z,9.37
2023-01-29T04:46:41.667Z,6.60
2023-01-29T04:49:23.711Z,12.93
2023-01-29T04:52:02.842Z,13.20
2023-01-29T04:54:44.450Z,9.83
2023-01-29T04:57:23.070Z,11.50
2023-01-29T04:59:58.136Z,13.40
2023-01-29T05:02:29.131Z,11.77
2023-01-29T05:04:59.748Z,7.53
2023-01-29T05:07:31.872Z,11.17
2023-01-29T05:10:01.384Z,11.90
2023-01-29T05:12:32.089Z,8.63
2023-01-29T05:15:03.744Z,9.03
2023-01-29T05:17:32.887Z,8.87
2023-01-29T05:20:02.002Z,7.27
2023-01-29T05:22:33.100Z,9.43
2023-01-29T05:25:02.155Z,12.23
2023-01-29T05:27:53.200Z,10.23
2023-01-29T05:30:22.657Z,9.83
2023-01-29T05:32:51.692Z,11.53
2023-01-29T05:35:20.684Z,8.63
2023-01-29T05:37:51.170Z,7.50
2023-01-29T05:40:20.213Z,10.80
2023-01-29T05:42:49.291Z,10.03
2023-01-29T05:45:19.165Z,8.57
2023-01-29T05:47:48.258Z,9.50
2023-01-29T05:50:19.140Z,10.03
2023-01-29T05:52:48.301Z,11.43
2023-01-29T05:55:18.931Z,10.70
2023-01-29T05:57:48.018Z,11.00
2023-01-29T06:00:18.369Z,11.40
2023-01-29T06:02:47.535Z,9.67
2023-01-29T06:05:16.628Z,10.73
2023-01-29T06:07:46.908Z,10.50
2023-01-29T06:10:19.223Z,12.50
2023-01-29T06:12:48.520Z,9.33
2023-01-29T06:15:19.593Z,9.43
2023-01-29T06:17:48.703Z,14.37
2023-01-29T06:20:18.251Z,9.27
2023-01-29T06:22:47.790Z,9.37
2023-01-29T06:25:18.290Z,10.67
2023-01-29T06:27:47.373Z,11.47
2023-01-29T06:30:17.206Z,11.43
2023-01-29T06:32:46.572Z,12.13
2023-01-29T06:35:15.749Z,13.30
2023-01-29T06:37:44.837Z,12.03
2023-01-29T06:40:14.804Z,14.03
2023-01-29T06:42:46.230Z,17.57
2023-01-29T06:45:15.601Z,19.13
2023-01-29T06:47:44.606Z,17.07
2023-01-29T06:50:14.081Z,13.17
2023-01-29T06:52:43.219Z,12.73
2023-01-29T06:55:12.273Z,18.63
2023-01-29T06:57:41.366Z,26.03
2023-01-29T07:00:13.373Z,13.43
2023-01-29T07:02:42.405Z,13.03
2023-01-29T07:05:11.456Z,10.07
2023-01-29T07:07:40.477Z,12.77
2023-01-29T07:10:10.685Z,15.73
2023-01-29T07:12:39.680Z,16.17
2023-01-29T07:15:09.758Z,18.00
2023-01-29T07:17:40.321Z,11.73
2023-01-29T07:20:10.996Z,15.90
2023-01-29T07:22:40.046Z,12.33
2023-01-29T07:25:10.579Z,10.97
2023-01-29T07:27:39.605Z,11.10
2023-01-29T07:30:10.247Z,12.93
2023-01-29T07:32:40.715Z,9.73
2023-01-29T07:35:10.656Z,16.07
2023-01-29T07:37:39.660Z,11.63
2023-01-29T07:40:11.349Z,16.43
2023-01-29T07:42:42.201Z,11.57
2023-01-29T07:45:12.829Z,12.37
2023-01-29T07:47:43.263Z,12.57
2023-01-29T07:50:13.012Z,17.13
2023-01-29T07:52:42.080Z,16.40
2023-01-29T07:55:11.588Z,16.07
2023-01-29T07:57:40.604Z,15.00
2023-01-29T08:00:11.716Z,19.47
2023-01-29T08:02:44.765Z,18.17
2023-01-29T08:05:13.776Z,14.30
2023-01-29T08:07:42.791Z,13.77
2023-01-29T08:10:13.115Z,20.30
2023-01-29T08:12:42.145Z,15.53
2023-01-29T08:15:12.167Z,18.20
2023-01-29T08:17:56.055Z,17.43
2023-01-29T08:20:28.195Z,15.43
2023-01-29T08:23:02.076Z,20.17
2023-01-29T08:25:31.820Z,20.10
2023-01-29T08:28:01.520Z,19.13
2023-01-29T08:30:33.332Z,18.23
2023-01-29T08:33:03.802Z,17.77
2023-01-29T08:35:34.293Z,18.77
2023-01-29T08:38:05.220Z,18.70
2023-01-29T08:40:35.630Z,18.57
2023-01-29T08:43:08.729Z,15.30
2023-01-29T08:45:41.158Z,15.07
2023-01-29T08:48:11.131Z,15.57
2023-01-29T08:50:41.557Z,26.37
2023-01-29T08:53:11.202Z,25.77
2023-01-29T08:55:41.305Z,22.13
2023-01-29T08:58:12.419Z,21.23
2023-01-29T09:00:41.550Z,22.57
2023-01-29T09:03:10.656Z,19.03
2023-01-29T09:05:42.056Z,23.37
2023-01-29T09:08:11.521Z,26.27
2023-01-29T09:10:40.786Z,26.17
2023-01-29T09:13:10.110Z,18.20
2023-01-29T09:15:39.216Z,27.83
2023-01-29T09:18:08.580Z,26.00
2023-01-29T09:20:38.984Z,24.37
2023-01-29T09:23:16.952Z,26.07
2023-01-29T09:25:46.195Z,26.00
2023-01-29T09:28:17.437Z,35.57
2023-01-29T09:30:46.670Z,27.03
2023-01-29T09:33:15.996Z,30.90
2023-01-29T09:35:47.083Z,24.73
2023-01-29T09:38:17.574Z,29.17
2023-01-29T09:40:55.618Z,26.40
2023-01-29T09:43:33.921Z,23.37
2023-01-29T09:46:09.005Z,25.23
2023-01-29T09:48:38.713Z,28.50
2023-01-29T09:51:19.679Z,26.07
2023-01-29T09:53:55.772Z,25.90
2023-01-29T09:56:28.857Z,22.70
2023-01-29T10:02:00.780Z,27.33
2023-01-29T10:03:04.155Z,27.17
2023-01-29T10:05:10.340Z,28.53
2023-01-29T10:08:09.684Z,27.17
2023-01-29T10:10:48.946Z,29.57
2023-01-29T10:13:30.335Z,18.33
2023-01-29T10:16:17.136Z,25.70
2023-01-29T10:19:10.590Z,21.47
2023-01-29T10:22:11.736Z,17.83
2023-01-29T10:24:46.998Z,25.10
2023-01-29T10:27:19.892Z,20.70
2023-01-29T10:29:53.795Z,21.90
2023-01-29T10:32:26.505Z,24.03
2023-01-29T10:35:01.269Z,15.60
2023-01-29T10:37:38.967Z,20.67
2023-01-29T10:40:23.591Z,20.93
2023-01-29T10:43:01.774Z,21.00
2023-01-29T10:45:40.548Z,25.53
2023-01-29T10:48:34.716Z,27.07
2023-01-29T10:51:15.978Z,22.30
2023-01-29T10:54:01.201Z,25.57
2023-01-29T10:56:47.787Z,28.53
2023-01-29T10:59:37.792Z,30.50
2023-01-29T11:02:16.191Z,26.23
2023-01-29T11:04:45.745Z,27.70
2023-01-29T11:07:17.409Z,29.37
2023-01-29T11:09:53.374Z,29.00
2023-01-29T11:12:26.765Z,28.03
2023-01-29T11:15:02.790Z,29.93
2023-01-29T11:17:31.921Z,29.43
2023-01-29T11:20:00.936Z,33.27
2023-01-29T11:22:31.449Z,31.53
2023-01-29T11:25:16.472Z,26.70
2023-01-29T11:27:48.019Z,16.10
2023-01-29T11:30:24.534Z,27.17
2023-01-29T11:33:07.644Z,27.00
2023-01-29T11:35:37.497Z,15.60
2023-01-29T11:38:19.564Z,26.43
2023-01-29T11:40:48.725Z,30.20
2023-01-29T11:43:30.049Z,33.57
2023-01-29T11:46:03.458Z,31.80
2023-01-29T11:48:42.002Z,34.23
2023-01-29T11:51:22.159Z,29.67
2023-01-29T11:53:55.341Z,30.57
2023-01-29T11:56:29.851Z,32.10
2023-01-29T11:59:00.108Z,25.27
2023-01-29T12:01:35.151Z,29.40
2023-01-29T12:04:05.402Z,29.77
2023-01-29T12:06:37.828Z,26.83
2023-01-29T12:09:16.987Z,28.73
2023-01-29T12:11:46.343Z,34.73
2023-01-29T12:14:33.533Z,28.40
2023-01-29T12:17:11.382Z,35.73
2023-01-29T12:19:45.154Z,37.33
2023-01-29T12:22:21.521Z,30.17
2023-01-29T12:24:57.442Z,30.00
2023-01-29T12:27:32.846Z,40.87
2023-01-29T12:30:11.798Z,27.07
2023-01-29T12:32:47.604Z,33.77
2023-01-29T12:35:21.065Z,31.60
2023-01-29T12:37:57.380Z,24.77
2023-01-29T12:40:32.070Z,25.50
2023-01-29T12:43:07.558Z,31.00
2023-01-29T12:45:38.877Z,21.67
2023-01-29T12:48:13.295Z,26.70
2023-01-29T12:50:42.959Z,27.80
2023-01-29T12:53:26.070Z,24.60
2023-01-29T12:56:00.665Z,25.30
2023-01-29T12:58:36.095Z,26.73
2023-01-29T13:01:13.382Z,20.87
2023-01-29T13:03:52.567Z,25.33
2023-01-29T13:06:26.468Z,17.73
2023-01-29T13:08:59.726Z,27.10
2023-01-29T13:11:35.255Z,27.73
2023-01-29T13:14:14.693Z,28.83
2023-01-29T13:16:48.931Z,26.40
2023-01-29T13:19:28.030Z,32.47
2023-01-29T13:22:00.607Z,35.00
2023-01-29T13:24:37.540Z,35.77
2023-01-29T13:27:07.146Z,32.27
2023-01-29T13:29:36.247Z,32.13
2023-01-29T13:32:06.874Z,33.27
2023-01-29T13:34:44.952Z,27.93
2023-01-29T13:37:29.223Z,32.77
2023-01-29T13:40:00.871Z,30.90
2023-01-29T13:42:41.387Z,31.67
2023-01-29T13:45:20.363Z,28.57
2023-01-29T13:47:51.585Z,29.20
2023-01-29T13:50:31.467Z,26.80
2023-01-29T13:53:03.669Z,37.60
2023-01-29T13:55:35.441Z,28.50
2023-01-29T13:58:07.159Z,31.33
2023-01-29T14:00:58.727Z,27.90
2023-01-29T14:04:04.768Z,28.63
2023-01-29T14:06:46.546Z,35.77
2023-01-29T14:09:56.303Z,36.47
2023-01-29T14:12:37.282Z,20.57
2023-01-29T14:15:21.769Z,13.33
2023-01-29T14:18:19.489Z,37.10
2023-01-29T14:21:08.283Z,21.77
2023-01-29T14:23:47.020Z,26.53
2023-01-29T14:26:28.500Z,33.57
2023-01-29T14:29:06.332Z,40.77
2023-01-29T14:31:43.929Z,29.70
2023-01-29T14:34:23.673Z,20.20
2023-01-29T14:36:56.889Z,31.17
2023-01-29T14:39:43.983Z,40.30
2023-01-29T14:42:25.662Z,34.03
2023-01-29T14:45:22.312Z,30.53
2023-01-29T14:48:00.720Z,29.90
2023-01-29T14:51:08.413Z,32.73
2023-01-29T14:53:58.382Z,25.47
2023-01-29T14:56:34.478Z,36.30
2023-01-29T14:59:17.199Z,33.77
2023-01-29T15:01:53.425Z,34.27
2023-01-29T15:04:27.145Z,32.40
2023-01-29T15:07:02.212Z,31.43
2023-01-29T15:09:40.778Z,34.17
2023-01-29T15:12:19.847Z,30.57
2023-01-29T15:14:58.033Z,37.23
2023-01-29T15:17:31.865Z,16.00
2023-01-29T15:20:00.909Z,36.87
2023-01-29T15:22:32.816Z,31.13
2023-01-29T15:25:08.192Z,28.23
2023-01-29T15:27:43.810Z,33.07
2023-01-29T15:30:18.756Z,33.40
2023-01-29T15:32:49.296Z,35.10
2023-01-29T15:35:30.004Z,45.13
2023-01-29T15:38:04.653Z,35.53
2023-01-29T15:40:34.421Z,34.03
2023-01-29T15:43:19.283Z,33.13
2023-01-29T15:45:49.625Z,24.73
2023-01-29T15:48:22.620Z,30.73
2023-01-29T15:50:54.901Z,24.13
2023-01-29T15:53:31.109Z,33.63
2023-01-29T15:56:00.238Z,32.33
2023-01-29T15:58:33.354Z,30.03
2023-01-29T16:01:02.946Z,29.00
2023-01-29T16:03:35.377Z,28.90
2023-01-29T16:06:06.917Z,40.13
2023-01-29T16:08:37.267Z,37.87
2023-01-29T16:11:08.351Z,32.47
2023-01-29T16:13:43.224Z,36.23
2023-01-29T16:16:22.650Z,24.30
2023-01-29T16:19:00.103Z,36.43
2023-01-29T16:21:34.259Z,36.20
2023-01-29T16:24:09.303Z,31.20
2023-01-29T16:26:40.803Z,41.13
2023-01-29T16:29:14.110Z,33.43
2023-01-29T16:31:46.968Z,42.73
2023-01-29T16:34:21.769Z,41.53
2023-01-29T16:36:52.834Z,38.97
2023-01-29T16:39:25.433Z,44.13
2023-01-29T16:42:27.057Z,33.23
2023-01-29T16:44:59.706Z,40.50
2023-01-29T16:47:35.883Z,37.77
2023-01-29T16:50:24.984Z,39.13
2023-01-29T16:52:58.908Z,19.63
2023-01-29T16:55:33.423Z,39.53
2023-01-29T16:58:10.763Z,44.77
2023-01-29T17:00:47.987Z,41.47
2023-01-29T17:03:18.834Z,39.70
2023-01-29T17:05:50.834Z,32.07
2023-01-29T17:08:26.670Z,38.80
2023-01-29T17:10:56.222Z,29.40
2023-01-29T17:13:29.714Z,28.20
2023-01-29T17:16:14.943Z,20.07
2023-01-29T17:18:43.960Z,34.17
2023-01-29T17:21:14.542Z,39.47
2023-01-29T17:23:44.820Z,38.77
2023-01-29T17:26:17.288Z,30.00
2023-01-29T17:28:47.574Z,27.07
2023-01-29T17:31:18.781Z,37.37
2023-01-29T17:33:49.142Z,31.00
2023-01-29T17:36:19.624Z,24.37
2023-01-29T17:38:49.801Z,28.63
2023-01-29T17:41:26.534Z,27.50
2023-01-29T17:43:56.084Z,31.47
2023-01-29T17:46:28.307Z,27.47
2023-01-29T17:48:58.540Z,35.93
2023-01-29T17:51:28.104Z,31.03
2023-01-29T17:53:57.593Z,34.73
2023-01-29T17:56:30.576Z,32.53
2023-01-29T17:59:01.090Z,34.17
2023-01-29T18:01:33.288Z,21.23
2023-01-29T18:04:03.706Z,25.37
2023-01-29T18:06:33.528Z,22.33
2023-01-29T18:09:03.250Z,29.30
2023-01-29T18:11:33.177Z,31.63
2023-01-29T18:14:05.215Z,22.23
2023-01-29T18:16:46.349Z,24.43
2023-01-29T18:19:22.644Z,21.67
2023-01-29T18:21:53.493Z,24.33
2023-01-29T18:24:23.941Z,28.00
2023-01-29T18:26:53.905Z,35.70
2023-01-29T18:29:22.965Z,28.07
2023-01-29T18:31:58.433Z,29.70
2023-01-29T18:34:27.571Z,29.70
2023-01-29T18:36:56.713Z,27.33
2023-01-29T18:39:25.904Z,27.07
2023-01-29T18:41:55.039Z,32.60
2023-01-29T18:44:24.046Z,31.23
2023-01-29T18:46:54.463Z,31.27
2023-01-29T18:49:23.512Z,26.67
2023-01-29T18:51:55.075Z,27.53
2023-01-29T18:54:24.268Z,30.77
2023-01-29T18:57:13.231Z,23.33
2023-01-29T18:59:42.381Z,27.50
2023-01-29T19:02:17.685Z,29.83
2023-01-29T19:04:46.885Z,34.10
2023-01-29T19:07:16.429Z,27.03
2023-01-29T19:09:46.924Z,34.93
2023-01-29T19:12:15.987Z,30.33
2023-01-29T19:14:45.107Z,35.23
2023-01-29T19:17:15.599Z,37.13
2023-01-29T19:19:44.683Z,38.87
2023-01-29T19:22:13.791Z,22.50
2023-01-29T19:24:42.822Z,45.17
2023-01-29T19:27:12.332Z,20.10
2023-01-29T19:29:41.454Z,28.60
2023-01-29T19:32:10.500Z,43.10
2023-01-29T19:34:43.822Z,46.70
2023-01-29T19:37:13.123Z,35.97
2023-01-29T19:39:42.250Z,43.50
2023-01-29T19:42:12.170Z,46.13
2023-01-29T19:44:41.156Z,45.33
2023-01-29T19:47:10.192Z,42.47
2023-01-29T19:49:41.478Z,48.60
2023-01-29T19:52:38.511Z,55.57
2023-01-29T19:55:18.907Z,38.93
2023-01-29T19:57:48.919Z,40.43
2023-01-29T20:00:19.526Z,61.57
2023-01-29T20:02:49.802Z,46.00
2023-01-29T20:05:20.737Z,49.97
2023-01-29T20:07:50.326Z,54.30
2023-01-29T20:10:19.893Z,48.37
2023-01-29T20:12:49.616Z,53.23
2023-01-29T20:15:18.912Z,55.47
2023-01-29T20:17:47.923Z,51.87
2023-01-29T20:20:17.775Z,41.57
2023-01-29T20:22:48.562Z,61.10
2023-01-29T20:25:17.773Z,52.47
2023-01-29T20:27:46.793Z,45.20
2023-01-29T20:30:16.486Z,39.57
2023-01-29T20:32:46.102Z,58.27
2023-01-29T20:35:17.928Z,55.57
2023-01-29T20:37:48.368Z,64.10
2023-01-29T20:40:20.362Z,69.10
2023-01-29T20:42:49.689Z,50.83
2023-01-29T20:45:18.817Z,55.90
2023-01-29T20:47:48.424Z,57.20
2023-01-29T20:50:19.624Z,71.20
2023-01-29T20:52:50.521Z,49.53
2023-01-29T20:55:20.069Z,59.07
2023-01-29T20:58:06.487Z,42.03
2023-01-29T21:00:35.989Z,51.33
2023-01-29T21:03:05.498Z,62.37
2023-01-29T21:05:34.530Z,53.20
2023-01-29T21:08:04.955Z,64.00
2023-01-29T21:10:33.983Z,45.60
2023-01-29T21:13:03.003Z,56.50
2023-01-29T21:15:32.020Z,62.63
2023-01-29T21:18:04.357Z,52.97
2023-01-29T21:20:33.774Z,47.03
2023-01-29T21:23:06.932Z,58.23
2023-01-29T21:25:36.494Z,56.40
2023-01-29T21:28:05.944Z,46.47
2023-01-29T21:30:35.277Z,59.47
2023-01-29T21:33:04.731Z,58.30
2023-01-29T21:35:36.706Z,63.20
2023-01-29T21:38:07.121Z,44.33
2023-01-29T21:40:36.202Z,51.80
2023-01-29T21:43:13.737Z,50.07
2023-01-29T21:45:43.430Z,36.80
2023-01-29T21:48:13.176Z,51.40
2023-01-29T21:50:42.223Z,59.93
2023-01-29T21:53:12.669Z,38.30
2023-01-29T21:55:42.049Z,35.73
2023-01-29T21:58:12.953Z,68.90
2023-01-29T22:00:43.329Z,63.27
2023-01-29T22:03:12.375Z,60.60
2023-01-29T22:05:41.422Z,57.47
2023-01-29T22:08:11.797Z,56.43
2023-01-29T22:10:40.899Z,42.67
2023-01-29T22:13:10.074Z,44.97
2023-01-29T22:15:39.119Z,61.80
2023-01-29T22:18:08.210Z,55.50
2023-01-29T22:20:37.229Z,52.20
2023-01-29T22:23:06.366Z,27.10
2023-01-29T22:25:36.769Z,34.00
2023-01-29T22:28:06.169Z,55.33
2023-01-29T22:30:35.242Z,45.27
2023-01-29T22:33:04.300Z,49.93
2023-01-29T22:35:33.502Z,44.57
2023-01-29T22:38:02.563Z,45.03
2023-01-29T22:40:31.760Z,49.37
2023-01-29T22:43:02.164Z,46.07
2023-01-29T22:45:31.248Z,32.37
2023-01-29T22:48:00.338Z,45.17
2023-01-29T22:50:29.390Z,48.27
2023-01-29T22:52:58.421Z,39.57
2023-01-29T22:55:27.513Z,46.43
2023-01-29T22:57:56.507Z,38.60
2023-01-29T23:00:27.343Z,34.30
2023-01-29T23:02:56.468Z,32.43
2023-01-29T23:05:25.557Z,32.07
2023-01-29T23:07:54.569Z,44.17
2023-01-29T23:10:23.627Z,28.67
2023-01-29T23:12:52.649Z,34.30
2023-01-29T23:15:21.667Z,33.63
2023-01-29T23:17:52.247Z,36.00
2023-01-29T23:20:21.739Z,29.33
2023-01-29T23:22:51.185Z,25.00
2023-01-29T23:25:20.220Z,27.00
2023-01-29T23:27:48.284Z,32.50
2023-01-29T23:30:17.926Z,25.80
2023-01-29T23:32:47.283Z,23.63
2023-01-29T23:35:17.733Z,39.30
2023-01-29T23:37:46.782Z,34.77
2023-01-29T23:40:16.680Z,39.00
2023-01-29T23:42:45.823Z,20.83
2023-01-29T23:45:14.973Z,35.63
2023-01-29T23:47:44.043Z,37.37
2023-01-29T23:50:13.698Z,37.60
2023-01-29T23:52:44.074Z,12.80
2023-01-29T23:55:13.116Z,25.67
2023-01-29T23:57:42.169Z,30.93
